Time;durP1;ratioP1;P1;durP2;ratioP2;P2;SDS_P1;SDS_P2;PMS_P1;PMS_P2;Temp;Humidity;BMP_temperature;BMP_pressure;BME280_temperature;BME280_humidity;BME280_pressure;Samples;Min_cycle;Max_cycle;Signal;HPM_P1;HPM_P2
2022/08/16 00:00:24;;;;;;;;;;;;;;;18.96;100.00;100461.31;1023826;28;19997;-73
2022/08/16 00:00:56;;;;;;;;;;;;;;;18.95;100.00;100459.72;1024391;29;19923;-74
2022/08/16 00:01:28;;;;;;;;;;;;;;;18.93;100.00;100457.28;1022298;29;19993;-74
2022/08/16 00:02:06;;;;;;;;;;;;;;;19.03;100.00;100451.81;1019895;29;20028;-74
2022/08/16 00:02:43;;;;;;;;;;;;;;;18.99;100.00;100460.75;1016863;29;19966;-73
2022/08/16 00:03:16;;;;;;;;;;;;;;;18.90;100.00;100451.63;1016410;29;19951;-73
2022/08/16 00:03:48;;;;;;;;;;;;;;;18.89;100.00;100461.63;1009773;29;19932;-73
2022/08/16 00:04:20;;;;;;;;;;;;;;;18.93;100.00;100461.88;1011735;29;20052;-74
2022/08/16 00:04:52;;;;;;;;;;;;;;;18.91;100.00;100458.66;1012006;29;20028;-74
2022/08/16 00:05:24;;;;;;;;;;;;;;;18.95;100.00;100455.13;1015927;29;19923;-73
2022/08/16 00:05:57;;;;;;;;;;;;;;;19.01;100.00;100456.69;1016175;29;19923;-73
2022/08/16 00:06:30;;;;;;;;;;;;;;;19.06;100.00;100455.84;1020288;29;19930;-74
2022/08/16 00:07:03;;;;;;;;;;;;;;;19.07;100.00;100449.34;1020171;29;19930;-73
2022/08/16 00:07:34;;;;;;;;;;;;;;;19.09;100.00;100457.97;1017185;29;19931;-73
2022/08/16 00:08:07;;;;;;;;;;;;;;;19.12;100.00;100458.19;1020079;29;19953;-74
2022/08/16 00:08:58;;;;;;;;;;;;;;;19.14;100.00;100457.91;1023423;28;20009;-74
2022/08/16 00:09:31;;;;;;;;;;;;;;;19.18;100.00;100464.41;1021200;29;20491;-73
2022/08/16 00:10:07;;;;;;;;;;;;;;;19.18;100.00;100459.00;1024344;29;20305;-73
2022/08/16 00:10:51;;;;;;;;;;;;;;;19.19;100.00;100455.22;1024752;28;20301;-73
2022/08/16 00:11:23;;;;;;;;;;;;;;;19.17;100.00;100457.34;1022712;29;20298;-73
2022/08/16 00:11:56;;;;;;;;;;;;;;;19.16;100.00;100461.16;1020421;29;19922;-73
2022/08/16 00:12:29;;;;;;;;;;;;;;;19.19;100.00;100455.22;1020476;29;19923;-73
2022/08/16 00:13:03;;;;;;;;;;;;;;;19.23;100.00;100466.25;1020119;29;19922;-73
2022/08/16 00:13:34;;;;;;;;;;;;;;;19.18;100.00;100460.88;1018064;29;19930;-73
2022/08/16 00:14:14;;;;;;;;;;;;;;;19.12;100.00;100465.50;1020085;29;19922;-73
2022/08/16 00:14:45;;;;;;;;;;;;;;;19.21;100.00;100455.72;1021686;29;19923;-73
2022/08/16 00:15:22;;;;;;;;;;;;;;;19.22;100.00;100457.34;1021408;29;20314;-73
2022/08/16 00:15:53;;;;;;;;;;;;;;;19.21;100.00;100461.13;1016383;29;19923;-73
2022/08/16 00:16:26;;;;;;;;;;;;;;;19.19;100.00;100455.22;1015327;29;19923;-73
2022/08/16 00:17:18;;;;;;;;;;;;;;;19.23;100.00;100456.25;1019265;29;20322;-73
2022/08/16 00:17:50;;;;;;;;;;;;;;;19.27;100.00;100459.19;1023292;29;19923;-73
2022/08/16 00:18:27;;;;;;;;;;;;;;;19.28;100.00;100464.31;1023859;29;19923;-73
2022/08/16 00:19:03;;;;;;;;;;;;;;;19.30;100.00;100462.13;1024462;28;20403;-73
2022/08/16 00:19:34;;;;;;;;;;;;;;;19.32;100.00;100465.34;1022199;29;19923;-73
2022/08/16 00:20:12;;;;;;;;;;;;;;;19.31;100.00;100468.31;1020317;29;19927;-73
2022/08/16 00:20:45;;;;;;;;;;;;;;;19.29;100.00;100465.91;1020454;29;19922;-73
2022/08/16 00:21:17;;;;;;;;;;;;;;;19.31;100.00;100463.72;1019769;29;20403;-73
2022/08/16 00:21:49;;;;;;;;;;;;;;;19.34;100.00;100463.16;1019904;29;20287;-73
2022/08/16 00:22:24;;;;;;;;;;;;;;;19.33;100.00;100466.16;1022298;29;19922;-73
2022/08/16 00:22:58;;;;;;;;;;;;;;;19.31;100.00;100463.72;1024240;29;19977;-73
2022/08/16 00:23:30;;;;;;;;;;;;;;;19.32;100.00;100467.22;1023747;29;19922;-74
2022/08/16 00:24:05;;;;;;;;;;;;;;;19.32;100.00;100465.34;1023881;29;20402;-73
2022/08/16 00:24:42;;;;;;;;;;;;;;;19.30;100.00;100467.53;1023858;29;20037;-73
2022/08/16 00:25:18;;;;;;;;;;;;;;;19.30;100.00;100458.63;1023722;29;19938;-73
2022/08/16 00:26:10;;;;;;;;;;;;;;;19.14;100.00;100463.31;1023940;29;20313;-73
2022/08/16 00:27:02;;;;;;;;;;;;;;;19.13;100.00;100467.91;1023972;28;20003;-73
2022/08/16 00:27:33;;;;;;;;;;;;;;;18.97;100.00;100468.31;1020197;29;20413;-73
2022/08/16 00:28:08;;;;;;;;;;;;;;;18.93;100.00;100464.59;1020187;29;19922;-73
2022/08/16 00:28:41;;;;;;;;;;;;;;;18.95;100.00;100468.59;1019876;29;19930;-73
2022/08/16 00:29:16;;;;;;;;;;;;;;;18.95;100.00;100465.09;1021683;29;20102;-73
2022/08/16 00:29:48;;;;;;;;;;;;;;;18.89;100.00;100461.63;1020126;29;19930;-73
2022/08/16 00:30:39;;;;;;;;;;;;;;;18.82;100.00;100464.63;1019951;29;19961;-73
2022/08/16 00:31:11;;;;;;;;;;;;;;;18.86;100.00;100467.56;1023165;29;19934;-73
2022/08/16 00:31:48;;;;;;;;;;;;;;;18.82;100.00;100470.03;1024149;29;20320;-73
2022/08/16 00:32:36;;;;;;;;;;;;;;;18.86;100.00;100464.06;1019402;29;19924;-73
2022/08/16 00:33:08;;;;;;;;;;;;;;;18.87;100.00;100469.19;1020050;29;19923;-73
2022/08/16 00:33:40;;;;;;;;;;;;;;;18.86;100.00;100464.06;1022043;29;19927;-73
2022/08/16 00:34:21;;;;;;;;;;;;;;;18.90;100.00;100467.81;1018717;29;20058;-73
2022/08/16 00:35:18;;;;;;;;;;;;;;;18.89;100.00;100467.00;1017427;29;19922;-74
2022/08/16 00:35:51;;;;;;;;;;;;;;;18.81;100.00;100463.03;1018535;29;19945;-73
2022/08/16 00:36:25;;;;;;;;;;;;;;;18.80;100.00;100461.41;1019857;29;19950;-73
2022/08/16 00:36:57;;;;;;;;;;;;;;;18.75;100.00;100469.53;1019781;29;19922;-73
2022/08/16 00:37:33;;;;;;;;;;;;;;;18.67;100.00;100469.34;1020370;29;20021;-77
2022/08/16 00:38:25;;;;;;;;;;;;;;;18.57;100.00;100459.34;1021375;28;19922;-77
2022/08/16 00:39:14;;;;;;;;;;;;;;;18.54;100.00;100459.91;1021956;29;19927;-77
2022/08/16 00:39:47;;;;;;;;;;;;;;;18.51;100.00;100455.88;1023975;29;20373;-77
2022/08/16 00:40:36;;;;;;;;;;;;;;;18.46;100.00;100457.81;1020089;29;19927;-77
2022/08/16 00:41:20;;;;;;;;;;;;;;;18.42;100.00;100456.75;1014600;29;20010;-77
2022/08/16 00:41:53;;;;;;;;;;;;;;;18.39;100.00;100462.72;1011558;29;19923;-77
2022/08/16 00:42:27;;;;;;;;;;;;;;;18.36;100.00;100463.25;1015451;29;19931;-77
2022/08/16 00:43:22;;;;;;;;;;;;;;;18.33;100.00;100461.09;1019185;29;20340;-77
2022/08/16 00:43:53;;;;;;;;;;;;;;;18.27;100.00;100463.00;1023910;28;19922;-77
2022/08/16 00:44:26;;;;;;;;;;;;;;;18.31;100.00;100460.56;1023711;29;19926;-77
2022/08/16 00:45:05;;;;;;;;;;;;;;;18.36;100.00;100463.25;1023890;29;20025;-73
2022/08/16 00:45:41;;;;;;;;;;;;;;;18.35;100.00;100456.22;1021947;29;20001;-73
2022/08/16 00:46:36;;;;;;;;;;;;;;;18.39;100.00;100463.50;1019591;29;20062;-77
2022/08/16 00:47:23;;;;;;;;;;;;;;;18.34;100.00;100460.00;1016074;29;19930;-77
2022/08/16 00:48:01;;;;;;;;;;;;;;;18.29;100.00;100462.72;1020595;29;19978;-77
2022/08/16 00:48:52;;;;;;;;;;;;;;;18.25;100.00;100456.28;1017675;29;20006;-77
2022/08/16 00:49:24;;;;;;;;;;;;;;;18.19;100.00;100463.59;1019336;29;19923;-77
2022/08/16 00:49:56;;;;;;;;;;;;;;;18.20;100.00;100449.84;1017445;29;20413;-77
2022/08/16 00:50:29;;;;;;;;;;;;;;;18.16;100.00;100448.78;1019713;29;20457;-77
2022/08/16 00:51:07;;;;;;;;;;;;;;;18.18;100.00;100452.00;1017676;29;20257;-77
2022/08/16 00:51:40;;;;;;;;;;;;;;;18.23;100.00;100449.28;1019692;29;19933;-77
2022/08/16 00:52:11;;;;;;;;;;;;;;;18.32;100.00;100456.78;1019826;29;19923;-77
2022/08/16 00:53:01;;;;;;;;;;;;;;;18.40;100.00;100448.13;1016778;29;20442;-77
2022/08/16 00:53:33;;;;;;;;;;;;;;;18.45;100.00;100451.59;1013728;29;19946;-77
2022/08/16 00:54:05;;;;;;;;;;;;;;;18.51;100.00;100455.09;1018748;29;20009;-76
2022/08/16 00:54:36;;;;;;;;;;;;;;;18.59;100.00;100451.78;1019854;29;19922;-77
2022/08/16 00:55:08;;;;;;;;;;;;;;;18.61;100.00;100455.00;1014111;29;19923;-77
2022/08/16 00:55:51;;;;;;;;;;;;;;;18.52;100.00;100454.81;1012120;29;19930;-77
2022/08/16 00:56:27;;;;;;;;;;;;;;;18.59;100.00;100459.88;1012374;29;19923;-77
2022/08/16 00:57:19;;;;;;;;;;;;;;;18.55;100.00;100450.75;1017938;29;19947;-77
2022/08/16 00:57:55;;;;;;;;;;;;;;;18.54;100.00;100455.31;1022352;28;19929;-77
2022/08/16 00:58:32;;;;;;;;;;;;;;;18.56;100.00;100457.75;1023636;28;19922;-77
2022/08/16 00:59:06;;;;;;;;;;;;;;;18.63;100.00;100455.59;1019946;29;19929;-77
2022/08/16 00:59:38;;;;;;;;;;;;;;;18.62;100.00;100450.44;1017675;29;20414;-76
2022/08/16 01:00:29;;;;;;;;;;;;;;;18.62;100.00;100458.50;1017530;29;19923;-77
2022/08/16 01:01:03;;;;;;;;;;;;;;;18.65;100.00;100461.53;1015941;29;19986;-77
2022/08/16 01:01:39;;;;;;;;;;;;;;;18.66;100.00;100457.75;1019794;29;20423;-77
2022/08/16 01:02:12;;;;;;;;;;;;;;;18.57;100.00;100459.34;1016022;29;19923;-77
2022/08/16 01:03:04;;;;;;;;;;;;;;;18.59;100.00;100459.88;1019711;29;20363;-77
2022/08/16 01:03:36;;;;;;;;;;;;;;;18.67;100.00;100458.53;1016046;29;19990;-74
2022/08/16 01:04:13;;;;;;;;;;;;;;;18.66;100.00;100457.75;1022677;29;19969;-73
2022/08/16 01:05:00;;;;;;;;;;;;;;;18.67;100.00;100459.34;1019869;29;19922;-77
2022/08/16 01:05:42;;;;;;;;;;;;;;;18.70;100.00;100457.97;1020360;29;19944;-77
2022/08/16 01:06:14;;;;;;;;;;;;;;;18.80;100.00;100469.50;1018821;29;19923;-76
2022/08/16 01:07:06;;;;;;;;;;;;;;;18.82;100.00;100456.53;1018996;29;19965;-76
2022/08/16 01:07:39;;;;;;;;;;;;;;;18.83;100.00;100450.06;1011902;29;20010;-73
2022/08/16 01:08:23;;;;;;;;;;;;;;;18.82;100.00;100461.94;1020648;29;19922;-73
2022/08/16 01:09:07;;;;;;;;;;;;;;;18.85;100.00;100449.78;1014119;29;20268;-73
2022/08/16 01:09:38;;;;;;;;;;;;;;;18.90;100.00;100459.72;1015885;29;20010;-73
2022/08/16 01:10:13;;;;;;;;;;;;;;;18.88;100.00;100464.59;1015966;29;20421;-73
2022/08/16 01:10:47;;;;;;;;;;;;;;;18.84;100.00;100465.16;1019699;29;19922;-73
2022/08/16 01:11:18;;;;;;;;;;;;;;;18.83;100.00;100458.16;1018780;29;19923;-73
2022/08/16 01:11:50;;;;;;;;;;;;;;;18.91;100.00;100459.47;1017229;29;19929;-73
2022/08/16 01:12:25;;;;;;;;;;;;;;;18.86;100.00;100455.97;1016088;29;20462;-73
2022/08/16 01:12:57;;;;;;;;;;;;;;;18.87;100.00;100466.47;1011837;29;19946;-73
2022/08/16 01:13:31;;;;;;;;;;;;;;;18.82;100.00;100456.53;1012032;29;19975;-73
2022/08/16 01:14:05;;;;;;;;;;;;;;;18.77;100.00;100448.47;1013682;29;19923;-73
2022/08/16 01:14:40;;;;;;;;;;;;;;;18.70;100.00;100458.78;1017751;29;19966;-73
2022/08/16 01:15:15;;;;;;;;;;;;;;;18.67;100.00;100453.94;1021453;29;20009;-73
2022/08/16 01:15:48;;;;;;;;;;;;;;;18.72;100.00;100462.00;1014828;29;20021;-76
2022/08/16 01:16:25;;;;;;;;;;;;;;;18.70;100.00;100456.09;1013762;29;19931;-77
2022/08/16 01:16:58;;;;;;;;;;;;;;;18.73;100.00;100455.53;1017704;29;19962;-77
2022/08/16 01:17:31;;;;;;;;;;;;;;;18.72;100.00;100453.91;1019315;29;20110;-77
2022/08/16 01:18:07;;;;;;;;;;;;;;;18.68;100.00;100454.75;1018199;29;20307;-77
2022/08/16 01:19:02;;;;;;;;;;;;;;;18.67;100.00;100451.25;1020530;29;20458;-77
2022/08/16 01:19:42;;;;;;;;;;;;;;;18.72;100.00;100455.81;1020036;29;19923;-77
2022/08/16 01:20:15;;;;;;;;;;;;;;;18.76;100.00;100452.25;1016429;29;20039;-77
2022/08/16 01:21:21;;;;;;;;;;;;;;;18.77;100.00;100447.69;1014330;29;19930;-77
2022/08/16 01:21:56;;;;;;;;;;;;;;;18.77;100.00;100453.06;1012950;29;20284;-77
2022/08/16 01:22:51;;;;;;;;;;;;;;;18.70;100.00;100458.78;1019716;29;19930;-77
2022/08/16 01:23:25;;;;;;;;;;;;;;;18.70;100.00;100450.69;1015574;29;19930;-73
2022/08/16 01:24:17;;;;;;;;;;;;;;;18.71;100.00;100452.31;1016431;29;20260;-73
2022/08/16 01:25:14;;;;;;;;;;;;;;;18.76;100.00;100451.47;1019632;29;19931;-74
2022/08/16 01:25:46;;;;;;;;;;;;;;;18.73;100.00;100454.72;1017547;29;19930;-73
2022/08/16 01:26:38;;;;;;;;;;;;;;;18.76;100.00;100452.25;1016184;29;19963;-73
2022/08/16 01:27:20;;;;;;;;;;;;;;;18.77;100.00;100455.78;1015521;29;19922;-73
2022/08/16 01:27:53;;;;;;;;;;;;;;;18.64;100.00;100454.50;1020156;29;19966;-73
2022/08/16 01:28:25;;;;;;;;;;;;;;;18.63;100.00;100452.91;1019829;29;19927;-73
2022/08/16 01:29:04;;;;;;;;;;;;;;;18.54;100.00;100446.44;1019764;29;20360;-73
2022/08/16 01:30:00;;;;;;;;;;;;;;;18.44;100.00;100451.88;1014153;29;19950;-73
2022/08/16 01:30:37;;;;;;;;;;;;;;;18.44;100.00;100454.59;1005660;29;20449;-73
2022/08/16 01:31:20;;;;;;;;;;;;;;;18.46;100.00;100447.03;1021047;29;19965;-77
2022/08/16 01:32:01;;;;;;;;;;;;;;;18.41;100.00;100445.16;1017103;29;19930;-77
2022/08/16 01:32:43;;;;;;;;;;;;;;;18.45;100.00;100451.59;1021379;29;20013;-77
2022/08/16 01:33:31;;;;;;;;;;;;;;;18.36;100.00;100455.19;1019781;29;20398;-76
2022/08/16 01:34:06;;;;;;;;;;;;;;;18.34;100.00;100446.53;1023577;29;19965;-77
2022/08/16 01:34:55;;;;;;;;;;;;;;;18.32;100.00;100454.09;1015676;29;20351;-76
2022/08/16 01:35:35;;;;;;;;;;;;;;;18.27;100.00;100454.13;1011790;29;19923;-76
2022/08/16 01:36:09;;;;;;;;;;;;;;;18.31;100.00;100455.16;1011925;29;20431;-77
2022/08/16 01:36:45;;;;;;;;;;;;;;;18.18;100.00;100446.63;1011597;29;20015;-77
2022/08/16 01:37:28;;;;;;;;;;;;;;;18.16;100.00;100454.16;1015706;29;19923;-76
2022/08/16 01:38:15;;;;;;;;;;;;;;;18.14;100.00;100456.34;1019071;29;19923;-77
2022/08/16 01:38:51;;;;;;;;;;;;;;;18.12;100.00;100452.31;1015038;29;20002;-77
2022/08/16 01:39:29;;;;;;;;;;;;;;;18.05;100.00;100446.38;1010786;29;19988;-73
2022/08/16 01:40:06;;;;;;;;;;;;;;;18.06;100.00;100454.19;1012483;29;20384;-77
2022/08/16 01:40:38;;;;;;;;;;;;;;;18.03;100.00;100448.53;1016075;29;19927;-76
2022/08/16 01:41:11;;;;;;;;;;;;;;;17.95;100.00;100452.63;1018082;29;20307;-77
2022/08/16 01:41:49;;;;;;;;;;;;;;;17.78;100.00;100446.72;1019171;29;19933;-77
2022/08/16 01:42:20;;;;;;;;;;;;;;;17.76;100.00;100454.28;1018863;29;19923;-77
2022/08/16 01:42:55;;;;;;;;;;;;;;;17.79;100.00;100443.75;1017597;29;20086;-77
2022/08/16 01:43:27;;;;;;;;;;;;;;;17.78;100.00;100446.72;1017665;29;20006;-76
2022/08/16 01:44:01;;;;;;;;;;;;;;;17.60;100.00;100451.59;1015771;29;19923;-77
2022/08/16 01:44:34;;;;;;;;;;;;;;;17.61;100.00;100450.53;1011719;29;20403;-76
2022/08/16 01:45:08;;;;;;;;;;;;;;;17.59;100.00;100451.88;1011733;29;19931;-77
2022/08/16 01:45:42;;;;;;;;;;;;;;;17.60;100.00;100446.22;1008820;29;19924;-76
2022/08/16 01:46:23;;;;;;;;;;;;;;;17.51;100.00;100444.31;1007697;29;20282;-77
2022/08/16 01:47:12;;;;;;;;;;;;;;;17.43;100.00;100451.09;1007544;29;19924;-77
2022/08/16 01:47:49;;;;;;;;;;;;;;;17.51;100.00;100444.31;1010213;29;19923;-77
2022/08/16 01:48:23;;;;;;;;;;;;;;;17.55;100.00;100451.63;1015346;29;19923;-77
2022/08/16 01:48:59;;;;;;;;;;;;;;;17.56;100.00;100455.94;1017533;29;19923;-76
2022/08/16 01:49:35;;;;;;;;;;;;;;;17.52;100.00;100454.81;1015020;29;20399;-76
2022/08/16 01:50:27;;;;;;;;;;;;;;;17.51;100.00;100453.22;1008187;29;19961;-73
2022/08/16 01:51:19;;;;;;;;;;;;;;;17.39;100.00;100450.00;1016295;29;19923;-73
2022/08/16 01:51:55;;;;;;;;;;;;;;;17.35;100.00;100448.13;1014068;29;19945;-73
2022/08/16 01:52:41;;;;;;;;;;;;;;;17.33;100.00;100445.72;1013640;29;19924;-73
2022/08/16 01:53:36;;;;;;;;;;;;;;;17.28;100.00;100448.41;1013855;29;20391;-73
2022/08/16 01:54:20;;;;;;;;;;;;;;;17.19;100.00;100445.44;1013972;29;19924;-73
2022/08/16 01:55:02;;;;;;;;;;;;;;;17.23;100.00;100451.09;1014193;29;20431;-73
2022/08/16 01:55:34;;;;;;;;;;;;;;;17.21;100.00;100445.97;1019490;29;19922;-73
2022/08/16 01:56:11;;;;;;;;;;;;;;;17.14;100.00;100450.00;1022180;29;19975;-73
2022/08/16 01:56:56;;;;;;;;;;;;;;;17.15;100.00;100443.56;1014162;29;19930;-73
2022/08/16 01:57:28;;;;;;;;;;;;;;;17.19;100.00;100444.63;1015734;29;19922;-73
2022/08/16 01:58:02;;;;;;;;;;;;;;;17.18;100.00;100453.78;1012938;29;19923;-73
2022/08/16 01:58:33;;;;;;;;;;;;;;;17.14;100.00;100442.75;1008554;29;20002;-73
2022/08/16 01:59:09;;;;;;;;;;;;;;;17.11;100.00;100450.56;1011831;29;20010;-73
2022/08/16 01:59:47;;;;;;;;;;;;;;;17.13;100.00;100448.41;1013736;29;19924;-73
2022/08/16 02:00:25;;;;;;;;;;;;;;;17.06;100.00;100450.56;1014299;29;20479;-73
2022/08/16 02:01:01;;;;;;;;;;;;;;;17.04;100.00;100448.13;1014739;29;19930;-73
2022/08/16 02:01:33;;;;;;;;;;;;;;;17.03;100.00;100451.09;1017769;29;19962;-73
2022/08/16 02:02:05;;;;;;;;;;;;;;;16.96;100.00;100454.03;1021110;29;19923;-73
2022/08/16 02:02:56;;;;;;;;;;;;;;;16.95;100.00;100445.16;1021498;29;19936;-73
2022/08/16 02:03:28;;;;;;;;;;;;;;;16.93;100.00;100457.25;1023667;29;19930;-73
2022/08/16 02:04:00;;;;;;;;;;;;;;;16.96;100.00;100452.16;1023664;29;19950;-73
2022/08/16 02:04:42;;;;;;;;;;;;;;;16.92;100.00;100450.25;1021458;29;19923;-73
2022/08/16 02:05:21;;;;;;;;;;;;;;;16.88;100.00;100450.00;1023858;29;20410;-73
2022/08/16 02:05:54;;;;;;;;;;;;;;;16.93;100.00;100443.81;1019790;29;20053;-77
2022/08/16 02:06:27;;;;;;;;;;;;;;;16.91;100.00;100449.47;1015303;29;20002;-77
2022/08/16 02:07:08;;;;;;;;;;;;;;;16.98;100.00;100450.03;1012079;29;20018;-77
2022/08/16 02:07:42;;;;;;;;;;;;;;;16.93;100.00;100452.69;1008968;29;19924;-77
2022/08/16 02:08:17;;;;;;;;;;;;;;;16.95;100.00;100447.03;1010367;29;19927;-76
2022/08/16 02:09:06;;;;;;;;;;;;;;;16.91;100.00;100457.53;1015724;29;19994;-76
2022/08/16 02:09:42;;;;;;;;;;;;;;;16.84;100.00;100453.50;1015444;29;20362;-76
2022/08/16 02:10:28;;;;;;;;;;;;;;;16.84;100.00;100443.53;1011805;29;19931;-76
2022/08/16 02:11:01;;;;;;;;;;;;;;;16.91;100.00;100448.66;1009935;29;20438;-76
2022/08/16 02:11:33;;;;;;;;;;;;;;;16.88;100.00;100450.00;1009168;29;19931;-77
2022/08/16 02:12:23;;;;;;;;;;;;;;;16.87;100.00;100447.56;1012190;29;19979;-76
2022/08/16 02:13:15;;;;;;;;;;;;;;;16.85;100.00;100447.03;1013321;29;19990;-77
2022/08/16 02:13:48;;;;;;;;;;;;;;;16.87;100.00;100452.97;1015535;29;20070;-76
2022/08/16 02:14:27;;;;;;;;;;;;;;;16.93;100.00;100447.31;1015322;29;19926;-76
2022/08/16 02:15:03;;;;;;;;;;;;;;;17.00;100.00;100452.44;1013469;29;19950;-76
2022/08/16 02:15:35;;;;;;;;;;;;;;;16.76;100.00;100452.16;1015784;29;19927;-77
2022/08/16 02:16:12;;;;;;;;;;;;;;;16.82;100.00;100451.06;1018167;29;19982;-77
2022/08/16 02:16:49;;;;;;;;;;;;;;;16.88;100.00;100450.00;1021893;29;19930;-77
2022/08/16 02:17:22;;;;;;;;;;;;;;;16.82;100.00;100455.66;1021630;29;19933;-77
2022/08/16 02:17:54;;;;;;;;;;;;;;;16.89;100.00;100451.63;1015624;29;19930;-76
2022/08/16 02:18:26;;;;;;;;;;;;;;;16.93;100.00;100455.38;1015161;29;19931;-76
2022/08/16 02:18:58;;;;;;;;;;;;;;;16.94;100.00;100457.00;1015948;29;20009;-77
2022/08/16 02:19:30;;;;;;;;;;;;;;;16.94;100.00;100454.31;1015213;29;20052;-76
2022/08/16 02:20:21;;;;;;;;;;;;;;;16.90;100.00;100447.84;1018711;29;19927;-76
2022/08/16 02:20:58;;;;;;;;;;;;;;;16.90;100.00;100457.78;1020243;29;19985;-76
2022/08/16 02:21:30;;;;;;;;;;;;;;;16.85;100.00;100458.59;1018004;29;20386;-77
2022/08/16 02:22:03;;;;;;;;;;;;;;;16.82;100.00;100453.75;1015626;29;20414;-76
2022/08/16 02:22:39;;;;;;;;;;;;;;;16.74;100.00;100456.19;1011765;29;20302;-77
2022/08/16 02:23:11;;;;;;;;;;;;;;;16.67;100.00;100453.72;1013091;29;19931;-76
2022/08/16 02:23:43;;;;;;;;;;;;;;;16.69;100.00;100451.56;1016618;29;19930;-77
2022/08/16 02:24:16;;;;;;;;;;;;;;;16.80;100.00;100455.91;1017215;29;20307;-76
2022/08/16 02:25:05;;;;;;;;;;;;;;;16.79;100.00;100451.59;1014122;29;19954;-77
2022/08/16 02:25:40;;;;;;;;;;;;;;;16.72;100.00;100456.44;1014065;29;19922;-77
2022/08/16 02:26:25;;;;;;;;;;;;;;;16.74;100.00;100464.25;1015750;29;19973;-76
2022/08/16 02:26:57;;;;;;;;;;;;;;;16.76;100.00;100457.53;1014737;29;19927;-77
2022/08/16 02:27:29;;;;;;;;;;;;;;;16.75;100.00;100455.91;1013036;29;19923;-76
2022/08/16 02:28:02;;;;;;;;;;;;;;;16.74;100.00;100450.81;1011995;29;19923;-77
2022/08/16 02:28:34;;;;;;;;;;;;;;;16.69;100.00;100446.19;1008424;29;19923;-76
2022/08/16 02:29:05;;;;;;;;;;;;;;;16.72;100.00;100459.13;1011889;29;19930;-77
2022/08/16 02:29:43;;;;;;;;;;;;;;;16.80;100.00;100457.78;1012040;29;20055;-76
2022/08/16 02:30:17;;;;;;;;;;;;;;;16.74;100.00;100448.91;1011969;29;19937;-76
2022/08/16 02:31:08;;;;;;;;;;;;;;;16.71;100.00;100460.22;1015736;29;19923;-76
2022/08/16 02:31:41;;;;;;;;;;;;;;;16.69;100.00;100451.56;1013192;29;19923;-77
2022/08/16 02:32:33;;;;;;;;;;;;;;;16.71;100.00;100452.13;1017517;29;19929;-76
2022/08/16 02:33:26;;;;;;;;;;;;;;;16.68;100.00;100456.13;1017501;29;20359;-76
2022/08/16 02:34:21;;;;;;;;;;;;;;;16.76;100.00;100462.09;1014579;29;19923;-76
2022/08/16 02:35:03;;;;;;;;;;;;;;;16.66;100.00;100452.91;1007970;29;19923;-76
2022/08/16 02:35:39;;;;;;;;;;;;;;;16.68;100.00;100456.13;1007929;29;19946;-77
2022/08/16 02:36:30;;;;;;;;;;;;;;;16.72;100.00;100456.44;1007889;29;19936;-77
2022/08/16 02:37:21;;;;;;;;;;;;;;;16.77;100.00;100453.75;1015082;29;20284;-76
2022/08/16 02:37:53;;;;;;;;;;;;;;;16.74;100.00;100454.28;1016775;29;19959;-76
2022/08/16 02:38:28;;;;;;;;;;;;;;;16.77;100.00;100453.75;1014698;29;19923;-77
2022/08/16 02:39:03;;;;;;;;;;;;;;;16.69;100.00;100454.25;1019166;29;19930;-76
2022/08/16 02:39:35;;;;;;;;;;;;;;;16.67;100.00;100459.09;1015962;29;20291;-76
2022/08/16 02:40:07;;;;;;;;;;;;;;;16.68;100.00;100460.72;1019569;29;19929;-76
2022/08/16 02:40:39;;;;;;;;;;;;;;;16.65;100.00;100455.84;1013311;29;19923;-76
2022/08/16 02:41:15;;;;;;;;;;;;;;;16.59;100.00;100451.53;1011555;29;20026;-76
2022/08/16 02:41:48;;;;;;;;;;;;;;;16.58;100.00;100456.09;1011877;29;20104;-76
2022/08/16 02:42:25;;;;;;;;;;;;;;;16.56;100.00;100460.13;1013628;29;20319;-77
2022/08/16 02:42:58;;;;;;;;;;;;;;;16.53;100.00;100447.22;1011788;29;19924;-76
2022/08/16 02:43:32;;;;;;;;;;;;;;;16.51;100.00;100462.81;1012906;29;19923;-76
2022/08/16 02:44:09;;;;;;;;;;;;;;;16.56;100.00;100458.25;1015157;29;19924;-76
2022/08/16 02:44:44;;;;;;;;;;;;;;;16.52;100.00;100457.16;1017286;29;19923;-77
2022/08/16 02:45:17;;;;;;;;;;;;;;;16.46;100.00;100457.41;1015592;29;19923;-77
2022/08/16 02:45:49;;;;;;;;;;;;;;;16.42;100.00;100457.13;1014647;29;19923;-77
2022/08/16 02:46:21;;;;;;;;;;;;;;;16.35;100.00;100452.00;1015160;29;19930;-76
2022/08/16 02:47:05;;;;;;;;;;;;;;;16.33;100.00;100454.13;1018183;29;20017;-76
2022/08/16 02:47:37;;;;;;;;;;;;;;;16.39;100.00;100457.66;1021295;29;19930;-76
2022/08/16 02:48:29;;;;;;;;;;;;;;;16.38;100.00;100446.09;1018289;29;20035;-76
2022/08/16 02:49:04;;;;;;;;;;;;;;;16.38;100.00;100454.16;1015305;29;19923;-76
2022/08/16 02:49:38;;;;;;;;;;;;;;;16.36;100.00;100453.59;1007796;29;20387;-76
2022/08/16 02:50:29;;;;;;;;;;;;;;;16.25;100.00;100451.97;1008011;29;19940;-76
2022/08/16 02:51:21;;;;;;;;;;;;;;;16.30;100.00;100449.28;1015043;29;19923;-76
2022/08/16 02:51:54;;;;;;;;;;;;;;;16.32;100.00;100447.16;1015688;29;20073;-77
2022/08/16 02:52:25;;;;;;;;;;;;;;;16.36;100.00;100448.22;1011743;29;19931;-77
2022/08/16 02:53:05;;;;;;;;;;;;;;;16.44;100.00;100446.13;1013248;29;19959;-76
2022/08/16 02:53:39;;;;;;;;;;;;;;;16.39;100.00;100445.00;1015766;29;20307;-76
2022/08/16 02:54:13;;;;;;;;;;;;;;;16.39;100.00;100442.31;1019767;29;19923;-77
2022/08/16 02:54:49;;;;;;;;;;;;;;;16.37;100.00;100444.47;1020617;29;19929;-76
2022/08/16 02:55:27;;;;;;;;;;;;;;;16.43;100.00;100452.53;1020043;29;19923;-76
2022/08/16 02:56:13;;;;;;;;;;;;;;;16.50;100.00;100450.44;1015501;29;19923;-76
2022/08/16 02:56:47;;;;;;;;;;;;;;;16.51;100.00;100449.38;1011832;29;19931;-76
2022/08/16 02:57:21;;;;;;;;;;;;;;;16.55;100.00;100453.13;1011594;29;20067;-76
2022/08/16 02:57:53;;;;;;;;;;;;;;;16.60;100.00;100450.44;1012352;29;19987;-76
2022/08/16 02:58:25;;;;;;;;;;;;;;;16.58;100.00;100452.59;1013601;29;19923;-76
2022/08/16 02:58:57;;;;;;;;;;;;;;;16.52;100.00;100445.59;1017068;29;20399;-76
2022/08/16 02:59:30;;;;;;;;;;;;;;;16.52;100.00;100456.34;1015619;29;19930;-76
2022/08/16 03:00:12;;;;;;;;;;;;;;;16.59;100.00;100462.28;1011175;29;19998;-76
2022/08/16 03:01:05;;;;;;;;;;;;;;;16.58;100.00;100455.28;1020583;29;19923;-77
2022/08/16 03:01:37;;;;;;;;;;;;;;;16.57;100.00;100454.47;1020621;29;19929;-76
2022/08/16 03:02:16;;;;;;;;;;;;;;;16.60;100.00;100450.44;1020187;29;20389;-76
2022/08/16 03:02:47;;;;;;;;;;;;;;;16.57;100.00;100459.06;1018694;29;20326;-76
2022/08/16 03:03:27;;;;;;;;;;;;;;;16.59;100.00;100456.91;1015781;29;20037;-76
2022/08/16 03:04:19;;;;;;;;;;;;;;;16.59;100.00;100452.34;1012577;29;19946;-76
2022/08/16 03:05:12;;;;;;;;;;;;;;;16.59;100.00;100451.53;1017010;29;19922;-77
2022/08/16 03:05:46;;;;;;;;;;;;;;;16.59;100.00;100456.91;1018570;29;20395;-76
2022/08/16 03:06:24;;;;;;;;;;;;;;;16.59;100.00;100448.84;1016150;29;19931;-76
2022/08/16 03:07:21;;;;;;;;;;;;;;;16.62;100.00;100461.75;1011985;29;19971;-76
2022/08/16 03:07:58;;;;;;;;;;;;;;;16.52;100.00;100454.47;1013943;29;20387;-76
2022/08/16 03:08:31;;;;;;;;;;;;;;;16.40;100.00;100456.56;1017158;29;19923;-76
2022/08/16 03:09:24;;;;;;;;;;;;;;;16.29;100.00;100447.69;1016548;29;19927;-76
2022/08/16 03:09:59;;;;;;;;;;;;;;;16.29;100.00;100453.06;1014826;29;19930;-76
2022/08/16 03:10:33;;;;;;;;;;;;;;;16.29;100.00;100453.06;1015740;29;19930;-76
2022/08/16 03:11:06;;;;;;;;;;;;;;;16.30;100.00;100457.34;1013703;29;20289;-77
2022/08/16 03:11:49;;;;;;;;;;;;;;;16.32;100.00;100455.22;1019722;29;19929;-76
2022/08/16 03:12:20;;;;;;;;;;;;;;;16.31;100.00;100456.28;1012447;29;20423;-76
2022/08/16 03:13:08;;;;;;;;;;;;;;;16.16;100.00;100456.25;1012536;29;19945;-76